Time;durP1;ratioP1;P1;durP2;ratioP2;P2;SDS_P1;SDS_P2;PMS_P1;PMS_P2;Temp;Humidity;BMP_temperature;BMP_pressure;BME280_temperature;BME280_humidity;BME280_pressure;Samples;Min_cycle;Max_cycle;Signal;HPM_P1;HPM_P2
2022/04/28 00:00:41;;;;;;;46.50;37.58;;;30.20;92.70;;;;;;1875291;75;21100;-85
2022/04/28 00:03:13;;;;;;;50.80;38.23;;;30.20;92.60;;;;;;1864263;75;21220;-85
2022/04/28 00:05:45;;;;;;;48.60;37.88;;;30.20;92.60;;;;;;1878462;75;21897;-84
2022/04/28 00:08:16;;;;;;;53.75;37.93;;;30.30;92.60;;;;;;1874734;75;21586;-84
2022/04/28 00:10:47;;;;;;;49.20;38.70;;;30.30;92.70;;;;;;1878232;75;21379;-85
2022/04/28 00:13:19;;;;;;;48.25;37.67;;;30.30;92.80;;;;;;1868271;75;21105;-85
2022/04/28 00:15:49;;;;;;;49.27;37.98;;;30.30;92.70;;;;;;1866194;75;21665;-84
2022/04/28 00:18:20;;;;;;;46.68;38.75;;;30.30;92.60;;;;;;1873001;75;21163;-85
2022/04/28 00:20:51;;;;;;;45.98;38.98;;;30.40;92.70;;;;;;1876036;75;21092;-85
2022/04/28 00:23:22;;;;;;;49.08;39.30;;;30.30;92.60;;;;;;1856113;75;21087;-85
2022/04/28 00:25:53;;;;;;;50.98;38.33;;;30.40;92.40;;;;;;1873978;75;21142;-84
2022/04/28 00:28:30;;;;;;;48.00;38.30;;;30.40;92.50;;;;;;1877003;75;21130;-85
2022/04/28 00:31:01;;;;;;;45.15;38.08;;;30.50;92.40;;;;;;1878246;75;21076;-85
2022/04/28 00:33:32;;;;;;;53.80;39.45;;;30.50;92.50;;;;;;1875726;75;21096;-86
2022/04/28 00:36:03;;;;;;;49.33;38.30;;;30.50;92.10;;;;;;1876424;75;21166;-86
2022/04/28 00:38:34;;;;;;;43.17;35.60;;;30.50;91.90;;;;;;1875983;75;21060;-87
2022/04/28 00:41:05;;;;;;;45.90;37.03;;;30.60;92.00;;;;;;1865316;76;21146;-85
2022/04/28 00:43:39;;;;;;;43.58;35.48;;;30.60;91.70;;;;;;1870871;75;21059;-85
2022/04/28 00:46:10;;;;;;;50.83;37.60;;;30.70;91.80;;;;;;1874679;76;21096;-85
2022/04/28 00:51:14;;;;;;;44.20;36.65;;;30.80;92.40;;;;;;1862671;75;21120;-85
2022/04/28 00:53:47;;;;;;;51.63;37.93;;;30.90;91.90;;;;;;1864652;75;21057;-85
2022/04/28 00:56:18;;;;;;;46.73;37.05;;;30.90;91.80;;;;;;1849314;76;21135;-85
2022/04/28 00:58:51;;;;;;;46.25;37.80;;;31.00;91.50;;;;;;1869370;75;21113;-85
2022/04/28 01:01:22;;;;;;;45.63;37.63;;;31.10;91.60;;;;;;1880412;76;21179;-84
2022/04/28 01:03:52;;;;;;;47.62;39.15;;;31.20;91.50;;;;;;1858617;76;21167;-85
2022/04/28 01:06:24;;;;;;;51.50;38.58;;;31.10;91.10;;;;;;1841663;78;21076;-84
2022/04/28 01:08:57;;;;;;;49.88;38.65;;;31.20;91.20;;;;;;1877182;76;21060;-85
2022/04/28 01:11:31;;;;;;;;;;;31.20;91.10;;;;;;1881997;76;21559;-84
2022/04/28 01:14:02;;;;;;;48.65;38.67;;;31.20;91.00;;;;;;1876665;76;20231;-83
2022/04/28 01:16:33;;;;;;;44.27;38.38;;;31.30;90.90;;;;;;1873018;75;21111;-85
2022/04/28 01:19:05;;;;;;;48.08;38.23;;;31.40;91.00;;;;;;1872624;75;21064;-86
2022/04/28 01:21:35;;;;;;;48.85;38.00;;;31.40;90.90;;;;;;1877707;75;21151;-86
2022/04/28 01:24:08;;;;;;;46.77;37.33;;;31.60;91.30;;;;;;1875946;76;21171;-85
2022/04/28 01:26:40;;;;;;;44.45;35.70;;;31.60;90.60;;;;;;1877977;75;21285;-85
2022/04/28 01:29:11;;;;;;;45.63;35.85;;;31.70;90.50;;;;;;1875800;75;21730;-84
2022/04/28 01:31:44;;;;;;;52.73;37.00;;;31.70;90.50;;;;;;1834567;77;21172;-86
2022/04/28 01:34:16;;;;;;;40.43;33.60;;;31.70;90.10;;;;;;1878091;75;21140;-85
2022/04/28 01:36:47;;;;;;;39.80;34.03;;;31.80;90.00;;;;;;1871859;75;21094;-85
2022/04/28 01:39:18;;;;;;;46.02;36.23;;;31.90;90.10;;;;;;1871104;76;21179;-85
2022/04/28 01:41:50;;;;;;;46.55;37.13;;;32.00;89.80;;;;;;1876168;75;21088;-85
2022/04/28 01:44:21;;;;;;;47.45;37.70;;;32.00;89.10;;;;;;1871466;75;21085;-86
2022/04/28 01:46:52;;;;;;;44.20;35.58;;;32.00;88.60;;;;;;1868086;75;21200;-85
2022/04/28 01:49:23;;;;;;;43.00;35.08;;;32.10;88.70;;;;;;1873228;76;21149;-71
2022/04/28 01:56:59;;;;;;;43.98;33.78;;;32.40;87.60;;;;;;1873310;76;21536;-71
2022/04/28 01:59:31;;;;;;;41.05;32.93;;;32.40;87.20;;;;;;1874175;76;21298;-73
2022/04/28 02:02:02;;;;;;;38.10;32.50;;;32.50;87.60;;;;;;1866873;75;21166;-72
2022/04/28 02:04:33;;;;;;;41.10;32.50;;;32.60;87.20;;;;;;1870036;76;21128;-72
2022/04/28 02:07:07;;;;;;;36.38;30.27;;;32.60;86.30;;;;;;1862765;76;21087;-71
2022/04/28 02:09:38;;;;;;;37.48;29.52;;;32.70;86.30;;;;;;1863285;76;21587;-71
2022/04/28 02:12:12;;;;;;;35.73;28.95;;;32.90;85.80;;;;;;1873856;76;21598;-71
2022/04/28 02:14:43;;;;;;;39.10;29.57;;;32.90;84.60;;;;;;1863159;76;21195;-70
2022/04/28 02:17:16;;;;;;;38.33;28.70;;;33.10;84.00;;;;;;1869643;75;21160;-71
2022/04/28 02:19:47;;;;;;;37.10;29.37;;;33.20;83.60;;;;;;1860941;76;21679;-71
2022/04/28 02:22:19;;;;;;;34.15;28.42;;;33.20;83.30;;;;;;1876068;76;21683;-71
2022/04/28 02:24:50;;;;;;;35.33;28.60;;;33.40;82.50;;;;;;1867359;76;21090;-71
2022/04/28 02:27:24;;;;;;;32.65;26.20;;;33.40;82.00;;;;;;1873301;75;21136;-70
2022/04/28 02:29:54;;;;;;;31.40;27.35;;;33.60;81.30;;;;;;1878159;76;21560;-71
2022/04/28 02:32:25;;;;;;;35.95;28.07;;;33.70;81.20;;;;;;1874773;76;21593;-70
2022/04/28 02:34:56;;;;;;;28.47;24.27;;;33.80;81.20;;;;;;1825574;77;21552;-70
2022/04/28 02:37:27;;;;;;;29.25;23.22;;;33.80;80.60;;;;;;1833156;76;21564;-71
2022/04/28 02:39:57;;;;;;;32.75;24.20;;;33.90;79.30;;;;;;1892300;75;21578;-71
2022/04/28 02:42:29;;;;;;;29.85;22.52;;;33.90;79.50;;;;;;1877539;76;21186;-71
2022/04/28 02:45:02;;;;;;;30.65;23.35;;;34.10;82.90;;;;;;1865554;76;21605;-71
2022/04/28 02:47:35;;;;;;;28.55;24.27;;;34.20;80.80;;;;;;1874081;76;21547;-70
2022/04/28 02:50:11;;;;;;;34.18;26.95;;;34.20;78.60;;;;;;1870458;76;21560;-71
2022/04/28 02:52:39;;;;;;;32.35;25.52;;;34.40;78.80;;;;;;1868082;76;21583;-71
2022/04/28 02:55:11;;;;;;;32.25;23.73;;;34.40;77.60;;;;;;1802235;78;21197;-70
2022/04/28 02:57:44;;;;;;;26.93;17.73;;;34.40;77.40;;;;;;1754022;81;21570;-70
2022/04/28 03:00:15;;;;;;;23.35;17.60;;;34.50;73.20;;;;;;1746484;80;21105;-71
2022/04/28 03:02:47;;;;;;;24.85;18.48;;;34.50;74.00;;;;;;1760366;80;21143;-71
2022/04/28 03:05:18;;;;;;;20.52;15.93;;;34.60;74.40;;;;;;1820760;79;21229;-70
2022/04/28 03:12:56;;;;;;;19.40;13.45;;;34.80;70.10;;;;;;1823660;79;21082;-85
2022/04/28 03:15:29;;;;;;;23.22;14.63;;;35.00;74.10;;;;;;1826842;77;21213;-85
2022/04/28 03:18:00;;;;;;;16.35;12.82;;;34.90;87.80;;;;;;1834171;77;21146;-74
2022/04/28 03:20:32;;;;;;;18.10;13.80;;;35.10;86.70;;;;;;1820012;78;21618;-71
2022/04/28 03:23:03;;;;;;;19.42;13.62;;;35.30;86.50;;;;;;1814273;78;21692;-71
2022/04/28 03:25:34;;;;;;;17.25;13.65;;;35.10;90.80;;;;;;1821875;79;21095;-71
2022/04/28 03:28:08;;;;;;;20.23;14.80;;;35.30;91.10;;;;;;1819746;77;21647;-71
2022/04/28 03:30:38;;;;;;;19.15;15.08;;;35.30;69.60;;;;;;1818023;77;21130;-73
2022/04/28 03:33:27;;;;;;;21.73;14.58;;;35.40;68.60;;;;;;1821921;77;21155;-70
2022/04/28 03:35:58;;;;;;;19.12;15.60;;;35.40;68.60;;;;;;1823414;78;21630;-71
2022/04/28 03:38:29;;;;;;;22.30;16.12;;;35.50;68.50;;;;;;1823483;77;21169;-71
2022/04/28 03:41:00;;;;;;;22.55;16.77;;;35.50;68.50;;;;;;1822114;77;21107;-71
2022/04/28 03:43:31;;;;;;;19.98;14.75;;;35.50;68.30;;;;;;1823722;79;21119;-70
2022/04/28 03:46:02;;;;;;;18.60;15.15;;;35.60;68.50;;;;;;1829637;77;21210;-70
2022/04/28 03:48:37;;;;;;;22.93;15.63;;;35.80;75.10;;;;;;1823186;77;21092;-70
2022/04/28 03:51:08;;;;;;;18.73;14.53;;;35.80;73.00;;;;;;1846211;77;21123;-69
2022/04/28 03:53:42;;;;;;;22.52;14.95;;;35.80;67.60;;;;;;1864074;75;21597;-70
2022/04/28 03:56:13;;;;;;;17.95;14.83;;;36.00;70.90;;;;;;1870491;75;21172;-70
2022/04/28 03:58:45;;;;;;;18.95;14.23;;;35.90;67.20;;;;;;1863090;76;21127;-71
2022/04/28 04:01:16;;;;;;;17.45;15.18;;;35.90;67.00;;;;;;1861085;75;21092;-71
2022/04/28 04:03:47;;;;;;;19.77;15.30;;;35.90;66.60;;;;;;1880731;75;21170;-70
2022/04/28 04:06:19;;;;;;;18.35;13.30;;;36.10;65.80;;;;;;1832504;76;21060;-69
2022/04/28 04:08:50;;;;;;;17.42;12.45;;;36.00;65.00;;;;;;1871859;75;21131;-70
2022/04/28 04:11:23;;;;;;;17.85;13.58;;;36.00;65.60;;;;;;1868309;76;21080;-71
2022/04/28 04:13:54;;;;;;;15.60;12.60;;;36.10;65.20;;;;;;1854786;76;21260;-71
2022/04/28 04:16:25;;;;;;;19.57;13.53;;;36.20;64.30;;;;;;1874125;76;21130;-71
2022/04/28 04:18:56;;;;;;;16.77;13.22;;;36.30;64.50;;;;;;1874997;76;21067;-71
2022/04/28 04:21:27;;;;;;;19.50;12.93;;;36.30;64.70;;;;;;1862253;75;21088;-71
2022/04/28 04:23:58;;;;;;;17.70;12.18;;;36.40;65.50;;;;;;1873418;75;21138;-71
2022/04/28 04:26:29;;;;;;;19.32;13.25;;;36.50;62.70;;;;;;1868183;75;21255;-72
2022/04/28 04:29:00;;;;;;;16.55;13.20;;;36.50;62.70;;;;;;1866198;75;21150;-72
2022/04/28 04:34:09;;;;;;;17.32;11.68;;;36.60;63.70;;;;;;1868367;75;21125;-72
2022/04/28 04:36:40;;;;;;;14.45;11.53;;;36.70;62.70;;;;;;1845030;76;21141;-72
2022/04/28 04:39:11;;;;;;;13.13;11.20;;;36.70;63.30;;;;;;1873507;75;21108;-73
2022/04/28 04:41:42;;;;;;;16.42;12.03;;;36.60;63.00;;;;;;1828936;76;21507;-71
2022/04/28 04:44:14;;;;;;;13.70;11.18;;;36.70;63.00;;;;;;1836594;76;21177;-70
2022/04/28 04:46:45;;;;;;;13.18;11.68;;;36.80;62.90;;;;;;1867179;75;21733;-71
2022/04/28 04:49:17;;;;;;;13.38;11.30;;;36.80;63.00;;;;;;1869494;75;21111;-71
2022/04/28 04:51:48;;;;;;;15.98;10.75;;;37.00;61.60;;;;;;1870709;75;21088;-71
2022/04/28 04:54:20;;;;;;;15.48;10.53;;;37.00;61.30;;;;;;1880376;75;21144;-72
2022/04/28 04:56:52;;;;;;;14.63;10.23;;;37.10;60.80;;;;;;1872045;75;21071;-71
2022/04/28 04:59:24;;;;;;;16.15;10.55;;;37.00;60.00;;;;;;1876198;75;21092;-72
2022/04/28 05:01:55;;;;;;;13.58;10.58;;;37.10;60.50;;;;;;1871414;75;21112;-72
2022/04/28 05:04:26;;;;;;;16.23;11.00;;;37.10;58.90;;;;;;1869123;76;21508;-73
2022/04/28 05:06:57;;;;;;;12.50;10.70;;;37.10;59.10;;;;;;1857647;75;21685;-71
2022/04/28 05:09:28;;;;;;;25.77;11.48;;;37.00;60.10;;;;;;1884362;75;21519;-71
2022/04/28 05:12:01;;;;;;;16.50;11.78;;;36.90;60.00;;;;;;1876977;76;21133;-72
2022/04/28 05:14:33;;;;;;;14.68;10.93;;;36.80;59.60;;;;;;1863369;75;21626;-72
2022/04/28 05:17:05;;;;;;;14.03;10.75;;;36.80;60.00;;;;;;1870680;76;21126;-71
2022/04/28 05:19:37;;;;;;;16.48;11.28;;;36.80;59.40;;;;;;1863022;75;21295;-71
2022/04/28 05:22:08;;;;;;;14.70;11.65;;;36.70;59.60;;;;;;1873650;75;21052;-72
2022/04/28 05:24:39;;;;;;;15.23;11.15;;;36.60;59.80;;;;;;1873053;75;21507;-71
2022/04/28 05:27:10;;;;;;;13.83;11.83;;;36.60;62.00;;;;;;1834305;77;21118;-72
2022/04/28 05:29:43;;;;;;;14.33;11.60;;;36.70;60.50;;;;;;1825648;78;21116;-72
2022/04/28 05:32:14;;;;;;;13.18;11.00;;;36.80;60.00;;;;;;1858807;76;21497;-71
2022/04/28 05:34:45;;;;;;;13.75;10.95;;;36.80;59.70;;;;;;1834998;77;21152;-72
2022/04/28 05:37:16;;;;;;;13.68;12.03;;;36.70;59.50;;;;;;1866845;75;21195;-72
2022/04/28 05:39:48;;;;;;;14.75;11.20;;;36.80;60.20;;;;;;1819250;77;21122;-73
2022/04/28 05:42:21;;;;;;;17.10;11.25;;;36.90;59.50;;;;;;1800164;79;21147;-72
2022/04/28 05:47:25;;;;;;;15.13;11.55;;;37.00;59.60;;;;;;1832228;77;21633;-72
2022/04/28 05:49:56;;;;;;;14.30;12.00;;;37.00;59.50;;;;;;1835370;77;21199;-72
2022/04/28 05:52:27;;;;;;;19.30;13.35;;;36.90;58.70;;;;;;1834837;77;21534;-72
2022/04/28 05:54:58;;;;;;;15.35;12.75;;;37.00;59.40;;;;;;1843769;77;21194;-71
2022/04/28 05:57:30;;;;;;;13.72;11.20;;;36.90;59.30;;;;;;1890949;74;21092;-72
2022/04/28 06:00:06;;;;;;;14.63;12.03;;;37.00;59.90;;;;;;1892737;75;21112;-73
2022/04/28 06:02:37;;;;;;;17.25;12.63;;;37.10;59.80;;;;;;1882545;75;21140;-71
2022/04/28 06:05:08;;;;;;;16.75;12.80;;;37.10;59.60;;;;;;1895293;75;21259;-72
2022/04/28 06:07:39;;;;;;;19.10;11.85;;;37.10;59.00;;;;;;1883244;74;21127;-72
2022/04/28 06:10:12;;;;;;;17.90;12.82;;;37.00;59.20;;;;;;1894623;74;21145;-72
2022/04/28 06:12:43;;;;;;;17.80;12.55;;;36.90;59.60;;;;;;1893627;74;21678;-71
2022/04/28 06:15:15;;;;;;;13.40;11.60;;;36.80;60.20;;;;;;1909073;74;21193;-71
2022/04/28 06:17:46;;;;;;;14.10;11.65;;;36.70;60.00;;;;;;1909589;74;21152;-72
2022/04/28 06:20:17;;;;;;;13.62;12.18;;;36.60;59.70;;;;;;1889599;74;21057;-71
2022/04/28 06:22:48;;;;;;;14.30;12.18;;;36.50;60.50;;;;;;1885625;74;21536;-72
2022/04/28 06:25:19;;;;;;;18.20;12.23;;;36.40;60.70;;;;;;1893523;74;21214;-73
2022/04/28 06:27:50;;;;;;;15.23;12.63;;;36.30;60.10;;;;;;1870967;74;21167;-72
2022/04/28 06:30:22;;;;;;;17.15;11.95;;;36.30;60.00;;;;;;1891619;74;21719;-71
2022/04/28 06:32:53;;;;;;;13.28;11.83;;;36.20;60.10;;;;;;1891858;74;21071;-72
2022/04/28 06:35:24;;;;;;;17.50;12.75;;;36.20;60.10;;;;;;1888291;74;21201;-71
2022/04/28 06:37:55;;;;;;;16.32;12.63;;;36.20;60.40;;;;;;1899767;74;21084;-71
2022/04/28 06:40:27;;;;;;;15.35;11.38;;;36.20;59.60;;;;;;1885363;74;21071;-70
2022/04/28 06:42:58;;;;;;;14.65;11.78;;;36.30;60.70;;;;;;1888351;74;21548;-70
2022/04/28 06:45:31;;;;;;;16.93;12.73;;;36.40;59.70;;;;;;1883959;74;21130;-70
2022/04/28 06:48:02;;;;;;;17.73;13.18;;;36.60;59.40;;;;;;1819028;79;21623;-70
2022/04/28 06:50:34;;;;;;;15.20;12.95;;;36.60;59.20;;;;;;1893223;74;21214;-70
2022/04/28 06:53:04;;;;;;;18.12;13.15;;;36.60;58.10;;;;;;1896593;74;21155;-71
2022/04/28 06:55:36;;;;;;;15.18;11.18;;;36.60;58.90;;;;;;1883299;76;21499;-71
2022/04/28 06:58:08;;;;;;;18.73;13.18;;;36.70;58.40;;;;;;1866848;76;21109;-71
2022/04/28 07:00:39;;;;;;;16.77;12.53;;;36.70;59.30;;;;;;1873726;75;21228;-70
2022/04/28 07:03:11;;;;;;;16.65;12.53;;;36.80;59.40;;;;;;1867193;75;21167;-70
2022/04/28 07:05:42;;;;;;;13.05;11.75;;;36.90;59.40;;;;;;1870654;76;21524;-71
2022/04/28 07:08:13;;;;;;;14.80;13.03;;;36.90;59.00;;;;;;1834111;77;21186;-71
2022/04/28 07:10:44;;;;;;;12.73;11.30;;;37.00;58.70;;;;;;1863551;76;21119;-71
2022/04/28 07:13:16;;;;;;;17.77;12.35;;;37.00;58.80;;;;;;1875128;76;21135;-70
2022/04/28 07:15:47;;;;;;;14.33;12.82;;;36.90;58.20;;;;;;1861659;75;21154;-71
2022/04/28 07:18:17;;;;;;;18.48;12.90;;;36.90;58.20;;;;;;1870138;76;21088;-70
2022/04/28 07:20:48;;;;;;;14.10;12.37;;;36.90;57.70;;;;;;1867556;76;21177;-71
2022/04/28 07:23:19;;;;;;;14.03;12.33;;;37.00;57.80;;;;;;1855337;76;21055;-71
2022/04/28 07:25:50;;;;;;;14.18;11.63;;;37.00;58.20;;;;;;1872520;76;21139;-71
2022/04/28 07:28:21;;;;;;;14.25;12.25;;;37.10;58.30;;;;;;1867962;75;21134;-71
2022/04/28 07:30:52;;;;;;;16.55;11.43;;;37.10;57.90;;;;;;1872624;76;21590;-71
2022/04/28 07:33:25;;;;;;;13.78;11.97;;;37.10;57.10;;;;;;1873936;76;21516;-70
2022/04/28 07:35:56;;;;;;;14.23;12.25;;;37.00;57.40;;;;;;1871971;76;21740;-72
2022/04/28 07:38:27;;;;;;;16.30;13.18;;;36.90;57.80;;;;;;1854957;76;21567;-71
2022/04/28 07:40:58;;;;;;;19.57;14.55;;;36.80;57.20;;;;;;1869475;76;21084;-72
2022/04/28 07:43:29;;;;;;;15.00;12.50;;;36.70;58.30;;;;;;1838303;76;21084;-71
2022/04/28 07:46:00;;;;;;;17.07;14.05;;;36.60;57.90;;;;;;1827242;77;21146;-72
2022/04/28 07:48:31;;;;;;;19.95;13.75;;;36.50;58.30;;;;;;1829881;76;21065;-71
2022/04/28 07:51:03;;;;;;;21.93;14.07;;;36.40;58.50;;;;;;1832422;76;21540;-71
2022/04/28 07:53:34;;;;;;;18.27;12.82;;;36.30;59.00;;;;;;1833970;76;21605;-72
2022/04/28 07:56:14;;;;;;;17.10;12.95;;;36.10;61.80;;;;;;1779430;79;21258;-71
2022/04/28 07:58:57;;;;;;;16.70;12.53;;;35.70;61.10;;;;;;1849951;76;21166;-73
2022/04/28 08:01:31;;;;;;;21.73;12.60;;;35.40;62.30;;;;;;1775898;79;21136;-70
2022/04/28 08:04:03;;;;;;;16.25;12.10;;;35.10;62.70;;;;;;1798865;78;22135;-71
2022/04/28 08:06:33;;;;;;;17.45;13.55;;;35.00;63.80;;;;;;1798429;78;21206;-69
2022/04/28 08:09:04;;;;;;;22.45;13.83;;;34.90;64.50;;;;;;1787213;78;21282;-70
2022/04/28 08:11:38;;;;;;;19.37;13.45;;;34.80;64.60;;;;;;1791628;79;21112;-70
2022/04/28 08:14:08;;;;;;;21.73;14.30;;;34.70;64.20;;;;;;1793872;79;21639;-72
2022/04/28 08:16:39;;;;;;;19.27;14.03;;;34.60;64.70;;;;;;1792682;78;21341;-72
2022/04/28 08:19:11;;;;;;;22.00;14.83;;;34.40;65.10;;;;;;1796587;79;21147;-70
2022/04/28 08:21:42;;;;;;;19.67;14.53;;;34.40;66.00;;;;;;1751442;80;21198;-71
2022/04/28 08:24:13;;;;;;;21.27;14.63;;;34.50;65.50;;;;;;1791586;79;21586;-69
2022/04/28 08:26:44;;;;;;;19.32;13.98;;;34.50;64.30;;;;;;1779531;79;21140;-69
2022/04/28 08:29:15;;;;;;;21.23;13.53;;;34.50;64.90;;;;;;1791967;79;21229;-70
2022/04/28 08:31:46;;;;;;;20.82;13.13;;;34.60;64.30;;;;;;1787535;79;21293;-70
2022/04/28 08:34:19;;;;;;;21.97;14.00;;;34.50;62.70;;;;;;1785590;79;21155;-70
2022/04/28 08:36:51;;;;;;;17.98;13.43;;;34.40;62.90;;;;;;1787709;79;21173;-70
2022/04/28 08:39:23;;;;;;;20.62;15.10;;;34.40;63.20;;;;;;1842460;74;21206;-68
2022/04/28 08:41:55;;;;;;;21.27;15.93;;;34.30;63.60;;;;;;1890142;75;21211;-70
2022/04/28 08:44:28;;;;;;;21.90;15.70;;;34.30;64.00;;;;;;1893392;74;21126;-70
2022/04/28 08:47:00;;;;;;;21.45;14.35;;;34.30;64.80;;;;;;1887168;75;21546;-71
2022/04/28 08:49:34;;;;;;;27.45;13.40;;;34.40;65.30;;;;;;1897864;74;21124;-69
2022/04/28 08:52:06;;;;;;;25.95;11.85;;;34.40;65.20;;;;;;1893547;74;21588;-70
2022/04/28 08:54:40;;;;;;;25.88;9.93;;;34.40;65.60;;;;;;1889944;74;21247;-71
2022/04/28 08:57:13;;;;;;;14.60;8.28;;;34.30;66.80;;;;;;1883963;75;21161;-70
2022/04/28 08:59:45;;;;;;;20.17;9.33;;;34.10;69.10;;;;;;1874077;75;21553;-71
2022/04/28 09:02:17;;;;;;;21.80;8.28;;;33.60;70.20;;;;;;1880886;75;21185;-70
2022/04/28 09:04:48;;;;;;;11.88;8.58;;;33.50;70.20;;;;;;1873768;75;21070;-70
2022/04/28 09:07:22;;;;;;;14.23;8.88;;;33.30;72.60;;;;;;1796668;78;21083;-71
2022/04/28 09:09:53;;;;;;;14.95;9.13;;;33.10;73.30;;;;;;1838617;76;21610;-71
2022/04/28 09:12:24;;;;;;;13.53;8.60;;;33.10;78.70;;;;;;1836586;76;21167;-70
2022/04/28 09:14:55;;;;;;;17.82;10.05;;;32.90;79.00;;;;;;1878288;75;21071;-70
2022/04/28 09:17:28;;;;;;;17.62;10.43;;;32.70;75.10;;;;;;1865679;76;21285;-70
2022/04/28 09:20:02;;;;;;;17.62;10.88;;;32.60;76.00;;;;;;1869391;75;21216;-69
2022/04/28 09:22:33;;;;;;;15.40;10.65;;;32.50;77.50;;;;;;1865667;75;21671;-71
2022/04/28 09:25:05;;;;;;;11.80;9.35;;;32.30;77.50;;;;;;1882111;75;21103;-69
2022/04/28 09:27:36;;;;;;;16.87;10.08;;;32.30;77.70;;;;;;1869471;75;21527;-70
2022/04/28 09:30:08;;;;;;;14.73;9.13;;;32.20;78.00;;;;;;1874686;75;21146;-71
2022/04/28 09:32:41;;;;;;;12.60;9.00;;;32.10;78.10;;;;;;1872324;75;21167;-70
2022/04/28 09:35:13;;;;;;;16.62;9.50;;;32.10;77.50;;;;;;1878036;75;21160;-71
2022/04/28 09:37:45;;;;;;;11.43;9.88;;;32.10;77.60;;;;;;1871436;75;21141;-71
2022/04/28 09:42:48;;;;;;;15.40;10.18;;;32.10;78.30;;;;;;1874838;75;21168;-71
2022/04/28 09:45:23;;;;;;;12.65;9.48;;;32.10;77.80;;;;;;1877452;75;21547;-70
2022/04/28 09:47:56;;;;;;;11.85;9.50;;;32.10;78.90;;;;;;1873664;75;21056;-69
2022/04/28 09:50:29;;;;;;;14.95;10.53;;;31.90;79.40;;;;;;1872046;75;21134;-69
2022/04/28 09:53:06;;;;;;;17.62;9.85;;;31.80;79.90;;;;;;1872073;75;21084;-68
2022/04/28 09:55:40;;;;;;;14.03;10.65;;;31.70;79.10;;;;;;1875050;75;21196;-71
2022/04/28 09:58:12;;;;;;;12.75;10.72;;;31.70;80.40;;;;;;1870844;74;21262;-69
2022/04/28 10:00:44;;;;;;;16.27;10.93;;;31.70;80.60;;;;;;1865680;75;21140;-71
2022/04/28 10:03:16;;;;;;;15.50;10.95;;;31.70;80.90;;;;;;1867430;75;21632;-73
2022/04/28 10:05:48;;;;;;;17.60;11.55;;;31.70;80.70;;;;;;1869761;75;21610;-73
2022/04/28 10:08:20;;;;;;;17.07;11.05;;;31.70;80.70;;;;;;1863070;75;21825;-83
2022/04/28 10:10:53;;;;;;;16.77;10.80;;;31.70;80.20;;;;;;1824278;77;21128;-82
2022/04/28 10:13:28;;;;;;;15.53;11.15;;;31.80;79.80;;;;;;1810469;78;21157;-83
2022/04/28 10:16:02;;;;;;;17.92;11.43;;;31.90;79.50;;;;;;1828387;77;21191;-82
2022/04/28 10:18:35;;;;;;;15.63;11.40;;;31.90;79.30;;;;;;1829209;77;21080;-83
2022/04/28 10:21:09;;;;;;;14.85;11.03;;;32.00;79.30;;;;;;1824389;77;21158;-83
2022/04/28 10:34:02;;;;;;;17.75;11.80;;;31.70;81.20;;;;;;1858324;76;21091;-84
2022/04/28 10:36:36;;;;;;;16.23;12.33;;;31.70;81.70;;;;;;1858996;76;21158;-82
2022/04/28 10:39:10;;;;;;;14.75;12.18;;;31.60;82.20;;;;;;1863626;76;21120;-82
2022/04/28 10:41:41;;;;;;;18.07;12.58;;;31.50;82.50;;;;;;1866700;76;21136;-82
2022/04/28 10:44:18;;;;;;;17.87;12.75;;;31.40;82.70;;;;;;1871138;76;21138;-83
2022/04/28 10:46:50;;;;;;;18.35;12.88;;;31.40;83.10;;;;;;1869136;76;21064;-84
2022/04/28 10:49:25;;;;;;;21.77;13.60;;;31.40;83.30;;;;;;1868819;76;21862;-83
2022/04/28 10:51:58;;;;;;;16.70;13.30;;;31.40;83.70;;;;;;1872065;76;21207;-82
2022/04/28 10:54:31;;;;;;;18.10;11.60;;;31.40;84.60;;;;;;1869758;76;21254;-83
2022/04/28 10:57:06;;;;;;;19.75;13.65;;;31.40;84.20;;;;;;1862487;76;21111;-82
2022/04/28 10:59:38;;;;;;;20.25;13.28;;;31.40;84.30;;;;;;1865279;76;21132;-82
2022/04/28 11:02:16;;;;;;;19.35;12.90;;;31.20;83.00;;;;;;1825846;77;21583;-84
2022/04/28 11:04:48;;;;;;;17.27;12.35;;;31.10;83.40;;;;;;1840322;77;21574;-83
2022/04/28 11:07:24;;;;;;;19.73;12.37;;;31.00;83.60;;;;;;1837602;77;21094;-83
2022/04/28 11:09:56;;;;;;;15.80;10.95;;;31.00;83.00;;;;;;1833343;77;21158;-82
2022/04/28 11:12:29;;;;;;;16.45;9.93;;;31.00;82.50;;;;;;1833391;77;21114;-81
2022/04/28 11:15:07;;;;;;;14.03;9.45;;;31.00;80.30;;;;;;1821042;77;21163;-83
2022/04/28 11:17:44;;;;;;;11.45;8.50;;;31.00;79.90;;;;;;1834661;77;21148;-83
2022/04/28 11:20:19;;;;;;;13.60;10.53;;;30.90;79.30;;;;;;1834284;77;21106;-84
2022/04/28 11:22:51;;;;;;;15.50;10.38;;;30.90;79.70;;;;;;1812890;78;21581;-83
2022/04/28 11:25:23;;;;;;;17.00;9.73;;;30.90;79.60;;;;;;1819279;77;21138;-83
2022/04/28 11:27:56;;;;;;;13.98;9.83;;;30.90;78.60;;;;;;1830700;77;21617;-82
2022/04/28 11:30:28;;;;;;;14.07;9.15;;;30.80;78.60;;;;;;1832070;77;21066;-82
2022/04/28 11:33:01;;;;;;;14.28;8.58;;;30.70;78.30;;;;;;1831370;78;21124;-82
2022/04/28 11:35:39;;;;;;;10.68;8.08;;;30.70;78.20;;;;;;1829512;78;21088;-82
2022/04/28 11:38:09;;;;;;;18.00;8.90;;;30.60;78.10;;;;;;1841986;77;21084;-82
2022/04/28 11:40:44;;;;;;;11.83;9.13;;;30.60;77.80;;;;;;1819601;78;21084;-82
2022/04/28 11:43:15;;;;;;;9.48;8.15;;;30.60;77.60;;;;;;1825871;77;21240;-83
2022/04/28 11:45:47;;;;;;;13.18;9.05;;;30.60;77.50;;;;;;1833765;78;21156;-83
2022/04/28 11:48:20;;;;;;;14.63;10.10;;;30.60;77.70;;;;;;1820473;77;21098;-84
2022/04/28 11:50:51;;;;;;;16.25;10.10;;;30.70;77.10;;;;;;1834759;78;21094;-82
2022/04/28 11:53:22;;;;;;;18.95;11.08;;;30.70;77.30;;;;;;1832186;77;21470;-83
2022/04/28 11:55:53;;;;;;;17.05;12.18;;;30.70;77.10;;;;;;1832952;77;21112;-83
2022/04/28 11:58:24;;;;;;;21.27;13.20;;;30.70;77.60;;;;;;1828253;77;21155;-83
2022/04/28 12:00:56;;;;;;;16.45;10.50;;;30.80;77.10;;;;;;1831251;77;21139;-82
2022/04/28 12:03:30;;;;;;;12.45;9.18;;;30.80;76.70;;;;;;1776514;78;21117;-82
2022/04/28 12:06:02;;;;;;;15.63;9.53;;;30.80;76.40;;;;;;1799707;78;21080;-82
2022/04/28 12:08:34;;;;;;;13.55;9.03;;;30.70;76.90;;;;;;1798532;80;21232;-84
2022/04/28 12:16:10;;;;;;;15.25;10.15;;;30.50;77.80;;;;;;1834412;77;21084;-81
2022/04/28 12:21:16;;;;;;;19.85;11.35;;;30.50;77.90;;;;;;1846789;77;21143;-83
2022/04/28 12:23:50;;;;;;;16.15;11.60;;;30.50;78.10;;;;;;1831725;77;21190;-82
2022/04/28 12:26:24;;;;;;;15.88;10.65;;;30.50;78.00;;;;;;1861625;75;21146;-82
2022/04/28 12:28:55;;;;;;;14.47;10.32;;;30.50;77.60;;;;;;1833652;77;21166;-84
2022/04/28 12:31:28;;;;;;;21.93;10.05;;;30.60;77.30;;;;;;1840560;77;21236;-83
2022/04/28 12:34:06;;;;;;;16.45;10.75;;;30.70;77.40;;;;;;1823119;78;21134;-81
2022/04/28 12:36:40;;;;;;;16.42;9.60;;;30.70;77.20;;;;;;1810382;78;21145;-82
2022/04/28 12:39:11;;;;;;;17.30;9.90;;;30.60;77.50;;;;;;1802818;78;21175;-81
2022/04/28 12:41:44;;;;;;;15.63;10.48;;;30.70;78.10;;;;;;1826814;78;21091;-82
2022/04/28 12:44:16;;;;;;;17.75;10.60;;;30.60;78.40;;;;;;1801750;78;21111;-82
2022/04/28 12:46:49;;;;;;;14.75;9.98;;;30.60;78.90;;;;;;1791490;80;21109;-83
2022/04/28 12:49:20;;;;;;;15.30;10.43;;;30.60;78.50;;;;;;1791716;78;21585;-82
2022/04/28 12:51:53;;;;;;;14.95;9.85;;;30.60;79.20;;;;;;1820221;78;21161;-82
2022/04/28 12:54:26;;;;;;;13.62;9.40;;;30.60;79.80;;;;;;1826862;76;21189;-81
2022/04/28 12:57:00;;;;;;;12.33;9.75;;;30.60;79.20;;;;;;1822682;78;21617;-82
2022/04/28 12:59:35;;;;;;;19.07;9.60;;;30.50;79.10;;;;;;1823869;77;21765;-82
2022/04/28 13:02:08;;;;;;;12.95;10.50;;;30.50;78.70;;;;;;1871007;76;21131;-82
2022/04/28 13:04:39;;;;;;;13.43;9.38;;;30.50;78.50;;;;;;1873571;76;21142;-80
2022/04/28 13:07:11;;;;;;;14.60;9.80;;;30.60;78.50;;;;;;1874654;76;21076;-81
2022/04/28 13:09:42;;;;;;;14.10;9.90;;;30.60;78.60;;;;;;1874514;76;21567;-82
2022/04/28 13:12:13;;;;;;;14.93;10.03;;;30.60;79.60;;;;;;1859021;76;21126;-83
2022/04/28 13:14:44;;;;;;;14.07;9.85;;;30.60;79.40;;;;;;1869430;75;21119;-83
2022/04/28 13:17:15;;;;;;;13.13;10.90;;;30.60;79.70;;;;;;1871167;76;21115;-83
2022/04/28 13:19:46;;;;;;;13.53;10.82;;;30.60;80.00;;;;;;1869648;75;21123;-82
2022/04/28 13:22:17;;;;;;;13.10;10.35;;;30.70;80.90;;;;;;1864502;75;21185;-82
2022/04/28 13:24:48;;;;;;;14.83;10.15;;;30.60;81.80;;;;;;1875034;76;21059;-82
2022/04/28 13:27:19;;;;;;;15.53;11.10;;;30.70;83.00;;;;;;1870811;75;21161;-83
2022/04/28 13:29:50;;;;;;;19.92;11.22;;;30.60;82.30;;;;;;1872934;75;21110;-82